createdAt,value
2023-04-15T00:30:07.612Z,1.28
2023-04-15T00:35:17.122Z,1.37
2023-04-15T00:40:32.867Z,1.13
2023-04-15T00:45:50.163Z,1.09
2023-04-15T00:51:05.744Z,1.39
2023-04-15T00:56:24.573Z,1.14
2023-04-15T01:01:41.734Z,1.11
2023-04-15T01:06:58.217Z,1.24
2023-04-15T01:12:14.842Z,1.18
2023-04-15T01:17:30.542Z,1.26
2023-04-15T01:22:47.503Z,1.16
2023-04-15T01:28:02.531Z,1.25
2023-04-15T01:33:18.445Z,1.34
2023-04-15T01:38:35.936Z,1.24
2023-04-15T01:43:51.663Z,1.26
2023-04-15T01:49:08.518Z,1.36
2023-04-15T01:54:26.776Z,1.31
2023-04-15T01:59:42.215Z,1.18
2023-04-15T02:04:58.381Z,1.12
2023-04-15T02:10:16.007Z,1.21
2023-04-15T02:15:32.961Z,1.32
2023-04-15T02:20:49.433Z,1.33
2023-04-15T02:26:05.470Z,1.16
2023-04-15T02:31:22.871Z,1.2
2023-04-15T02:36:38.708Z,1.46
2023-04-15T02:41:54.775Z,1.56
2023-04-15T02:47:10.552Z,1.49
2023-04-15T02:52:28.229Z,1.26
2023-04-15T02:57:44.949Z,1.43
2023-04-15T03:03:02.242Z,1.52
2023-04-15T03:08:18.579Z,1.5
2023-04-15T03:12:59.100Z,1.58
2023-04-15T03:18:15.018Z,1.59
2023-04-15T03:23:31.676Z,1.67
2023-04-15T03:28:48.631Z,1.45
2023-04-15T03:34:06.057Z,1.61
2023-04-15T03:39:22.870Z,1.49
2023-04-15T03:44:38.973Z,1.48
2023-04-15T03:49:55.185Z,1.25
2023-04-15T03:55:11.095Z,1.22
2023-04-15T04:00:28.252Z,1.34
2023-04-15T04:42:47.309Z,1.3
2023-04-15T04:47:57.308Z,1.3
2023-04-15T04:53:12.734Z,1.39
2023-04-15T04:58:29.736Z,1.22
2023-04-15T05:03:47.645Z,1.34
2023-04-15T05:09:04.241Z,1.28
2023-04-15T05:14:18.863Z,1.38
2023-04-15T05:19:35.812Z,1.27
2023-04-15T05:24:52.347Z,1.34
2023-04-15T05:30:13.992Z,1.4
2023-04-15T05:35:24.706Z,1.5
2023-04-15T05:40:41.655Z,1.38
2023-04-15T05:45:58.168Z,1.54
2023-04-15T05:51:15.445Z,1.8
2023-04-15T05:56:33.349Z,1.79
2023-04-15T06:01:49.923Z,1.66
2023-04-15T06:07:05.517Z,1.72
2023-04-15T06:12:21.270Z,1.45
2023-04-15T06:17:39.467Z,1.67
2023-04-15T06:22:54.852Z,1.63
2023-04-15T06:28:10.137Z,1.62
2023-04-15T06:33:25.919Z,1.45
2023-04-15T06:38:41.956Z,1.67
2023-04-15T06:43:58.830Z,1.71
2023-04-15T06:49:15.745Z,1.84
2023-04-15T06:54:34.056Z,1.49
2023-04-15T06:59:49.605Z,1.67
2023-04-15T07:05:05.965Z,1.4
2023-04-15T07:10:25.861Z,1.72
2023-04-15T07:15:37.336Z,1.46
2023-04-15T07:20:54.776Z,1.41
2023-04-15T07:26:12.344Z,1.48
2023-04-15T07:31:29.430Z,1.48
2023-04-15T07:36:46.366Z,1.29
2023-04-15T07:42:02.833Z,1.45
2023-04-15T08:24:22.024Z,0.86
2023-04-15T08:29:31.692Z,1.1
2023-04-15T08:34:47.033Z,0.75
2023-04-15T08:40:04.004Z,0.85
2023-04-15T08:45:19.363Z,1.12
2023-04-15T08:50:37.100Z,0.75
2023-04-15T08:55:52.978Z,0.9
2023-04-15T09:01:10.026Z,0.93
2023-04-15T09:06:25.250Z,0.81
2023-04-15T09:11:43.028Z,1.08
2023-04-15T09:17:00.531Z,0.94
2023-04-15T09:22:15.878Z,0.91
2023-04-15T09:27:31.972Z,1
2023-04-15T09:32:47.579Z,1
2023-04-15T09:38:03.341Z,0.8
2023-04-15T09:43:19.106Z,0.86
2023-04-15T09:48:37.154Z,0.86
2023-04-15T09:53:52.461Z,1.01
2023-04-15T09:59:09.660Z,0.97
2023-04-15T10:04:27.695Z,0.97
2023-04-15T10:09:44.646Z,0.92
2023-04-15T10:14:59.849Z,1.22
2023-04-15T10:20:15.793Z,1.02
2023-04-15T10:25:32.284Z,0.68
2023-04-15T10:30:49.753Z,0.76
2023-04-15T10:36:07.205Z,0.88
2023-04-15T10:41:23.500Z,0.87
2023-04-15T10:46:41.102Z,0.85
2023-04-15T10:51:57.026Z,0.81
2023-04-15T10:57:14.399Z,0.75
2023-04-15T11:02:32.631Z,0.74
2023-04-15T11:07:46.566Z,0.64
2023-04-15T11:13:03.265Z,0.66
2023-04-15T11:18:19.345Z,0.75
2023-04-15T12:05:56.726Z,0.67
2023-04-15T12:11:06.145Z,0.76
2023-04-15T12:16:24.008Z,0.75
2023-04-15T12:21:40.352Z,0.74
2023-04-15T12:26:55.938Z,0.79
2023-04-15T12:32:11.878Z,0.71
2023-04-15T12:37:28.072Z,0.67
2023-04-15T12:42:46.814Z,0.67
2023-04-15T12:48:05.087Z,0.69
2023-04-15T12:53:21.276Z,0.78
2023-04-15T12:58:37.767Z,0.57
2023-04-15T13:03:55.672Z,0.52
2023-04-15T13:46:16.619Z,0.68
2023-04-15T13:51:25.647Z,0.53
2023-04-15T13:56:41.042Z,0.73
2023-04-15T14:01:57.877Z,0.7
2023-04-15T14:07:15.349Z,0.62
2023-04-15T14:12:32.492Z,0.61
2023-04-15T14:17:48.365Z,0.6
2023-04-15T14:23:03.897Z,0.57
2023-04-15T14:28:19.860Z,0.52
2023-04-15T14:33:35.845Z,0.57
2023-04-15T14:38:53.959Z,0.52
2023-04-15T14:44:11.592Z,0.79
2023-04-15T14:49:28.617Z,0.62
2023-04-15T14:54:45.405Z,0.58
2023-04-15T15:00:02.155Z,0.56
2023-04-15T15:05:18.811Z,0.58
2023-04-15T15:10:50.313Z,0.43
2023-04-15T15:15:50.658Z,0.59
2023-04-15T15:21:06.507Z,0.61
2023-04-15T15:26:22.516Z,0.49
2023-04-15T15:31:39.164Z,0.63
2023-04-15T15:36:56.604Z,0.61
2023-04-15T15:42:12.789Z,0.66
2023-04-15T15:47:29.203Z,0.67
2023-04-15T15:52:44.810Z,0.62
2023-04-15T15:58:01.214Z,0.55
2023-04-15T16:03:18.972Z,0.67
2023-04-15T16:08:34.844Z,0.72
2023-04-15T16:13:50.317Z,0.65
2023-04-15T16:19:07.085Z,0.8
2023-04-15T16:24:21.396Z,0.75
2023-04-15T16:29:37.486Z,0.64
2023-04-15T16:34:54.859Z,0.7
2023-04-15T16:40:10.973Z,0.78
2023-04-15T16:45:26.486Z,0.63
2023-04-15T17:27:44.862Z,0.77
2023-04-15T17:32:56.198Z,0.79
2023-04-15T17:38:11.845Z,0.79
2023-04-15T17:43:27.974Z,0.84
2023-04-15T17:48:45.568Z,0.83
2023-04-15T17:54:00.942Z,0.72
2023-04-15T17:59:16.656Z,0.79
2023-04-15T18:04:33.946Z,0.76
2023-04-15T18:09:50.886Z,0.48
2023-04-15T18:15:06.513Z,0.75
2023-04-15T18:20:22.234Z,0.78
2023-04-15T18:25:39.852Z,0.74
2023-04-15T18:30:57.468Z,0.69
2023-04-15T18:36:14.005Z,0.79
2023-04-15T18:41:29.583Z,0.5
2023-04-15T18:46:45.129Z,0.81
2023-04-15T18:52:00.603Z,0.76
2023-04-15T18:57:37.681Z,0.99
2023-04-15T19:02:33.934Z,0.83
2023-04-15T19:07:49.326Z,1
2023-04-15T19:13:06.659Z,0.91
2023-04-15T19:18:23.850Z,0.42
2023-04-15T19:23:40.303Z,0.84
2023-04-15T19:28:56.877Z,1.09
2023-04-15T19:34:13.454Z,0.8
2023-04-15T19:39:28.942Z,0.82
2023-04-15T19:44:44.885Z,0.74
2023-04-15T19:50:00.947Z,0.81
2023-04-15T19:55:18.234Z,0.74
2023-04-15T20:00:33.459Z,0.93
2023-04-15T20:05:50.161Z,0.85
2023-04-15T20:11:05.931Z,0.66
2023-04-15T20:16:21.564Z,0.79
2023-04-15T20:21:37.592Z,0.63
2023-04-15T20:26:55.935Z,0.84
2023-04-15T21:09:13.222Z,1
2023-04-15T21:14:23.166Z,0.92
2023-04-15T21:19:38.935Z,0.74
2023-04-15T21:24:55.775Z,0.6
2023-04-15T21:30:12.480Z,0.81
2023-04-15T21:35:28.333Z,0.99
2023-04-15T21:40:45.125Z,1.08
2023-04-15T21:46:36.558Z,0.97
2023-04-15T21:51:18.313Z,0.93
2023-04-15T21:56:35.110Z,1.03
2023-04-15T22:01:51.869Z,1.29
2023-04-15T22:07:06.735Z,0.99
2023-04-15T22:12:23.830Z,1.02
2023-04-15T22:17:39.278Z,1.32
2023-04-15T22:22:55.169Z,1.36
2023-04-15T22:28:12.145Z,1.06
2023-04-15T22:33:29.743Z,1.34
2023-04-15T22:38:47.363Z,1.13
2023-04-15T22:44:03.341Z,1.81
2023-04-15T22:49:20.832Z,1.53
2023-04-15T22:54:36.994Z,1.6
2023-04-15T22:59:53.932Z,1.38
2023-04-15T23:05:13.990Z,1.79
2023-04-15T23:10:26.809Z,1.17
2023-04-15T23:15:43.273Z,1.44
2023-04-15T23:21:01.039Z,1.78
2023-04-15T23:26:17.808Z,1.63
2023-04-15T23:31:33.396Z,1.41
2023-04-15T23:36:49.821Z,1.99
2023-04-15T23:42:06.245Z,1.67
2023-04-15T23:47:23.318Z,2.61
2023-04-15T23:52:40.309Z,1.58
2023-04-15T23:57:56.790Z,2.23
